createdAt,value
2022-10-31T00:01:21.940Z,9.45
2022-10-31T00:03:48.893Z,8.70
2022-10-31T00:06:18.993Z,9.40
2022-10-31T00:08:53.330Z,10.05
2022-10-31T00:11:20.215Z,9.48
2022-10-31T00:13:47.022Z,9.63
2022-10-31T00:16:18.198Z,9.23
2022-10-31T00:18:48.615Z,8.95
2022-10-31T00:21:15.859Z,9.60
2022-10-31T00:23:42.622Z,10.23
2022-10-31T00:26:09.476Z,9.77
2022-10-31T00:28:36.298Z,8.73
2022-10-31T00:31:05.618Z,9.38
2022-10-31T00:33:35.295Z,10.05
2022-10-31T00:36:02.454Z,9.98
2022-10-31T00:38:29.390Z,9.35
2022-10-31T00:40:56.179Z,10.13
2022-10-31T00:43:23.110Z,10.70
2022-10-31T00:45:49.869Z,8.85
2022-10-31T00:48:16.764Z,9.77
2022-10-31T00:50:43.583Z,9.73
2022-10-31T00:53:10.326Z,8.90
2022-10-31T00:55:37.612Z,9.00
2022-10-31T00:58:04.909Z,8.90
2022-10-31T01:00:33.038Z,8.65
2022-10-31T01:03:00.171Z,8.68
2022-10-31T01:05:27.293Z,9.00
2022-10-31T01:07:54.050Z,8.60
2022-10-31T01:10:20.868Z,9.35
2022-10-31T01:12:49.769Z,8.90
2022-10-31T01:15:22.500Z,9.10
2022-10-31T01:17:50.386Z,8.95
2022-10-31T01:20:18.136Z,7.97
2022-10-31T01:22:44.875Z,7.63
2022-10-31T01:25:12.323Z,8.90
2022-10-31T01:27:39.111Z,8.10
2022-10-31T01:30:08.180Z,9.18
2022-10-31T01:32:35.131Z,8.15
2022-10-31T01:35:01.892Z,8.63
2022-10-31T01:37:28.645Z,9.10
2022-10-31T01:39:55.370Z,9.40
2022-10-31T01:42:24.351Z,8.98
2022-10-31T01:44:57.914Z,9.00
2022-10-31T01:47:48.023Z,9.30
2022-10-31T01:50:31.405Z,8.23
2022-10-31T01:53:00.046Z,9.00
2022-10-31T01:55:34.873Z,8.02
2022-10-31T01:58:15.469Z,9.40
2022-10-31T02:00:49.060Z,9.18
2022-10-31T02:03:17.243Z,9.23
2022-10-31T02:14:10.157Z,8.73
2022-10-31T02:16:37.016Z,9.88
2022-10-31T02:19:06.059Z,8.50
2022-10-31T02:21:42.604Z,8.32
2022-10-31T02:24:47.394Z,8.70
2022-10-31T02:27:49.417Z,7.63
2022-10-31T02:30:25.511Z,8.15
2022-10-31T02:33:16.168Z,7.63
2022-10-31T02:35:48.760Z,8.93
2022-10-31T02:38:42.230Z,8.50
2022-10-31T02:41:26.476Z,8.18
2022-10-31T02:44:22.767Z,7.35
2022-10-31T02:47:03.277Z,8.10
2022-10-31T02:49:58.084Z,8.07
2022-10-31T02:52:27.268Z,9.00
2022-10-31T02:54:59.721Z,8.60
2022-10-31T02:57:35.489Z,8.45
2022-10-31T03:00:06.441Z,8.73
2022-10-31T03:02:57.329Z,9.73
2022-10-31T03:06:01.411Z,8.50
2022-10-31T03:09:00.740Z,8.52
2022-10-31T03:11:40.947Z,8.30
2022-10-31T03:14:13.949Z,8.57
2022-10-31T03:16:47.573Z,9.40
2022-10-31T03:19:29.573Z,9.15
2022-10-31T03:22:05.755Z,7.97
2022-10-31T03:24:38.307Z,7.72
2022-10-31T03:27:09.136Z,7.30
2022-10-31T03:29:38.066Z,8.00
2022-10-31T03:32:20.109Z,7.93
2022-10-31T03:34:48.283Z,8.68
2022-10-31T03:37:19.597Z,9.05
2022-10-31T03:39:48.699Z,8.80
2022-10-31T03:42:19.482Z,8.88
2022-10-31T03:44:56.856Z,9.73
2022-10-31T03:47:23.833Z,10.45
2022-10-31T03:49:51.496Z,10.73
2022-10-31T03:52:36.135Z,10.43
2022-10-31T03:55:25.059Z,11.50
2022-10-31T04:00:56.448Z,12.13
2022-10-31T04:03:31.878Z,11.65
2022-10-31T04:06:05.216Z,12.82
2022-10-31T04:08:37.707Z,13.52
2022-10-31T04:11:06.816Z,12.05
2022-10-31T04:13:40.722Z,11.85
2022-10-31T04:16:17.124Z,9.85
2022-10-31T04:21:11.771Z,9.40
2022-10-31T04:23:38.816Z,8.68
2022-10-31T04:26:14.437Z,9.05
2022-10-31T04:28:44.088Z,9.32
2022-10-31T04:31:12.939Z,9.27
2022-10-31T04:33:40.058Z,8.55
2022-10-31T04:36:07.395Z,9.68
2022-10-31T04:38:34.604Z,9.95
2022-10-31T04:41:03.598Z,8.73
2022-10-31T04:43:51.067Z,9.82
2022-10-31T04:46:17.966Z,9.85
2022-10-31T04:48:44.952Z,9.10
2022-10-31T04:51:12.009Z,9.35
2022-10-31T04:53:38.723Z,8.90
2022-10-31T04:56:24.077Z,10.60
2022-10-31T04:58:56.596Z,10.05
2022-10-31T05:01:25.009Z,11.25
2022-10-31T05:03:51.828Z,11.75
2022-10-31T05:06:18.589Z,11.13
2022-10-31T05:08:46.319Z,9.55
2022-10-31T05:11:13.989Z,9.85
2022-10-31T05:13:40.926Z,10.02
2022-10-31T05:16:13.298Z,9.18
2022-10-31T05:18:48.667Z,9.27
2022-10-31T05:21:44.047Z,10.93
2022-10-31T05:24:11.708Z,9.98
2022-10-31T05:26:40.602Z,11.57
2022-10-31T05:29:07.296Z,10.50
2022-10-31T05:31:34.360Z,11.57
2022-10-31T05:34:02.681Z,10.82
2022-10-31T05:36:48.143Z,10.98
2022-10-31T05:39:22.002Z,12.23
2022-10-31T05:41:53.672Z,12.77
2022-10-31T05:44:23.468Z,12.90
2022-10-31T05:47:10.115Z,11.90
2022-10-31T05:50:12.303Z,10.55
2022-10-31T05:52:41.706Z,12.15
2022-10-31T05:55:21.306Z,11.13
2022-10-31T05:58:23.419Z,10.95
2022-10-31T06:03:33.546Z,9.00
2022-10-31T06:06:03.202Z,9.68
2022-10-31T06:08:33.960Z,9.90
2022-10-31T06:11:05.162Z,8.90
2022-10-31T06:13:50.488Z,10.32
2022-10-31T06:16:22.957Z,9.48
2022-10-31T06:18:50.978Z,9.15
2022-10-31T06:21:19.271Z,9.75
2022-10-31T06:23:48.757Z,11.02
2022-10-31T06:26:54.032Z,10.50
2022-10-31T06:29:21.869Z,11.93
2022-10-31T06:32:01.378Z,11.23
2022-10-31T06:34:29.340Z,11.27
2022-10-31T06:36:56.083Z,11.75
2022-10-31T06:39:25.434Z,12.35
2022-10-31T06:41:53.830Z,11.27
2022-10-31T06:44:22.182Z,10.82
2022-10-31T06:46:48.918Z,12.68
2022-10-31T06:49:34.177Z,11.52
2022-10-31T06:52:03.458Z,12.48
2022-10-31T06:54:30.233Z,12.57
2022-10-31T06:56:57.180Z,12.63
2022-10-31T06:59:25.131Z,13.30
2022-10-31T07:02:11.741Z,12.55
2022-10-31T07:04:40.222Z,12.75
2022-10-31T07:07:07.861Z,11.70
2022-10-31T07:09:36.061Z,11.32
2022-10-31T07:12:04.722Z,12.75
2022-10-31T07:14:35.285Z,12.57
2022-10-31T07:17:02.683Z,12.52
2022-10-31T07:19:34.420Z,13.35
2022-10-31T07:22:02.447Z,14.00
2022-10-31T07:24:32.083Z,14.45
2022-10-31T07:27:17.224Z,13.18
2022-10-31T07:29:45.848Z,12.27
2022-10-31T07:32:12.564Z,13.10
2022-10-31T07:34:47.480Z,13.32
2022-10-31T07:37:20.754Z,12.88
2022-10-31T07:39:48.442Z,13.38
2022-10-31T07:42:15.165Z,13.32
2022-10-31T07:44:44.944Z,13.32
2022-10-31T07:47:30.190Z,13.48
2022-10-31T07:50:02.800Z,15.27
2022-10-31T07:52:48.463Z,14.35
2022-10-31T07:55:35.622Z,14.85
2022-10-31T07:58:05.432Z,16.00
2022-10-31T08:00:34.129Z,15.30
2022-10-31T08:03:08.069Z,16.58
2022-10-31T08:06:04.255Z,15.00
2022-10-31T08:08:53.525Z,15.98
2022-10-31T08:11:20.268Z,16.60
2022-10-31T08:13:48.041Z,15.60
2022-10-31T08:16:15.563Z,14.68
2022-10-31T08:18:56.699Z,14.73
2022-10-31T08:21:24.271Z,15.75
2022-10-31T08:23:51.005Z,14.00
2022-10-31T08:26:20.459Z,14.80
2022-10-31T08:28:50.748Z,14.45
2022-10-31T08:31:19.964Z,14.30
2022-10-31T08:33:46.655Z,15.23
2022-10-31T08:36:19.456Z,13.75
2022-10-31T08:38:59.115Z,14.43
2022-10-31T08:41:28.869Z,14.88
2022-10-31T08:43:55.662Z,13.88
2022-10-31T08:46:22.676Z,13.00
2022-10-31T08:48:50.210Z,14.25
2022-10-31T08:51:18.025Z,16.23
2022-10-31T08:53:45.027Z,13.70
2022-10-31T08:56:44.199Z,14.98
2022-10-31T08:59:28.679Z,15.23
2022-10-31T09:02:20.383Z,14.00
2022-10-31T09:04:49.503Z,15.05
2022-10-31T09:07:21.513Z,16.05
2022-10-31T09:09:48.574Z,16.60
2022-10-31T09:12:15.337Z,15.30
2022-10-31T09:15:01.710Z,15.70
2022-10-31T09:17:54.766Z,16.33
2022-10-31T09:20:32.418Z,15.70
2022-10-31T09:23:01.537Z,15.02
2022-10-31T09:25:30.512Z,14.52
2022-10-31T09:28:33.366Z,15.38
2022-10-31T09:31:08.941Z,15.10
2022-10-31T09:33:58.377Z,15.32
2022-10-31T09:36:39.037Z,15.20
2022-10-31T09:39:13.107Z,14.63
2022-10-31T09:42:05.549Z,13.52
2022-10-31T09:45:01.895Z,14.57
2022-10-31T09:47:55.188Z,14.65
2022-10-31T09:50:57.440Z,16.83
2022-10-31T09:53:59.758Z,16.20
2022-10-31T09:59:01.482Z,15.75
2022-10-31T10:01:49.542Z,15.13
2022-10-31T10:04:37.244Z,16.67
2022-10-31T10:07:35.281Z,17.08
2022-10-31T10:10:39.081Z,17.45
2022-10-31T10:13:42.652Z,15.85
2022-10-31T10:16:39.391Z,16.00
2022-10-31T10:19:29.996Z,14.80
2022-10-31T10:22:06.413Z,14.02
2022-10-31T10:25:14.177Z,14.88
2022-10-31T10:27:54.714Z,14.43
2022-10-31T10:30:27.380Z,14.55
2022-10-31T10:33:00.215Z,13.98
2022-10-31T10:35:39.255Z,15.02
2022-10-31T10:38:24.883Z,14.95
2022-10-31T10:40:54.766Z,15.02
2022-10-31T10:43:40.023Z,15.13
2022-10-31T10:46:47.447Z,15.50
2022-10-31T10:49:20.231Z,14.30
2022-10-31T10:52:07.306Z,13.95
2022-10-31T10:54:54.000Z,14.85
2022-10-31T10:57:35.877Z,14.00
2022-10-31T11:00:17.208Z,15.00
2022-10-31T11:02:46.487Z,14.70
2022-10-31T11:05:35.959Z,14.45
2022-10-31T11:08:04.052Z,14.60
2022-10-31T11:10:31.015Z,14.27
2022-10-31T11:13:19.579Z,13.35
2022-10-31T11:15:54.760Z,14.27
2022-10-31T11:18:28.173Z,12.73
2022-10-31T11:20:57.848Z,13.25
2022-10-31T11:23:26.773Z,12.95
2022-10-31T11:26:06.223Z,12.52
2022-10-31T11:28:36.001Z,13.00
2022-10-31T11:31:09.751Z,13.32
2022-10-31T11:33:44.725Z,13.60
2022-10-31T11:36:35.189Z,12.77
2022-10-31T11:39:04.426Z,12.10
2022-10-31T11:41:39.357Z,13.32
2022-10-31T11:44:15.465Z,12.35
2022-10-31T11:46:56.304Z,12.57
2022-10-31T11:49:23.163Z,12.05
2022-10-31T11:51:55.433Z,11.35
2022-10-31T11:54:30.595Z,11.65
2022-10-31T11:56:57.957Z,12.02
2022-10-31T11:59:26.973Z,12.07
2022-10-31T12:01:55.574Z,11.57
2022-10-31T12:04:52.388Z,11.20
2022-10-31T12:07:19.196Z,10.20
2022-10-31T12:09:46.322Z,11.27
2022-10-31T12:12:27.156Z,10.68
2022-10-31T12:15:00.242Z,9.80
2022-10-31T12:17:31.424Z,9.50
2022-10-31T12:20:23.712Z,10.70
2022-10-31T12:22:58.621Z,11.63
2022-10-31T12:25:44.437Z,10.43
2022-10-31T12:28:30.853Z,9.60
2022-10-31T12:31:23.190Z,9.43
2022-10-31T12:34:18.093Z,10.35
2022-10-31T12:36:54.397Z,9.98
2022-10-31T12:39:30.180Z,10.27
2022-10-31T12:42:28.015Z,8.98
2022-10-31T12:45:39.544Z,9.32
2022-10-31T12:48:23.762Z,9.87
2022-10-31T12:51:08.579Z,8.52
2022-10-31T12:54:03.317Z,7.53
2022-10-31T12:57:04.021Z,7.25
2022-10-31T12:59:58.200Z,7.53
2022-10-31T13:02:40.108Z,7.57
2022-10-31T13:05:33.401Z,6.50
2022-10-31T13:08:29.639Z,7.22
2022-10-31T13:11:19.297Z,6.35
2022-10-31T13:13:58.375Z,7.88
2022-10-31T13:16:42.326Z,6.45
2022-10-31T13:19:26.686Z,6.97
2022-10-31T13:22:08.915Z,6.20
2022-10-31T13:24:42.881Z,6.32
2022-10-31T13:27:21.527Z,5.47
2022-10-31T13:29:56.312Z,5.22
2022-10-31T13:32:23.663Z,4.68
2022-10-31T13:34:57.050Z,4.78
2022-10-31T13:37:55.060Z,4.80
2022-10-31T13:40:48.508Z,5.40
2022-10-31T13:43:24.369Z,5.00
2022-10-31T13:45:56.254Z,4.80
2022-10-31T13:48:26.047Z,4.10
2022-10-31T13:51:12.269Z,4.97
2022-10-31T13:53:58.337Z,5.10
2022-10-31T13:56:32.069Z,5.43
2022-10-31T13:59:09.867Z,6.95
2022-10-31T14:01:37.988Z,5.22
2022-10-31T14:04:39.720Z,5.45
2022-10-31T14:07:16.491Z,5.93
2022-10-31T14:10:03.018Z,5.78
2022-10-31T14:12:40.042Z,6.13
2022-10-31T14:15:20.141Z,5.60
2022-10-31T14:17:57.687Z,5.43
2022-10-31T14:20:41.024Z,5.38
2022-10-31T14:23:33.550Z,5.07
2022-10-31T14:26:32.212Z,5.25
2022-10-31T14:29:00.538Z,4.32
2022-10-31T14:31:52.933Z,4.55
2022-10-31T14:34:22.627Z,5.10
2022-10-31T14:36:56.431Z,4.38
2022-10-31T14:39:54.165Z,4.28
2022-10-31T14:42:57.787Z,4.65
2022-10-31T14:45:33.482Z,4.35
2022-10-31T14:48:08.169Z,4.97
2022-10-31T14:50:38.041Z,4.85
2022-10-31T14:53:08.205Z,4.57
2022-10-31T14:55:35.136Z,4.90
2022-10-31T14:58:07.371Z,4.60
2022-10-31T15:00:36.477Z,5.32
2022-10-31T15:03:16.829Z,5.35
2022-10-31T15:05:52.650Z,5.03
2022-10-31T15:08:44.782Z,5.82
2022-10-31T15:13:50.329Z,5.07
2022-10-31T15:16:25.605Z,5.53
2022-10-31T15:19:03.778Z,6.20
2022-10-31T15:21:30.926Z,4.95
2022-10-31T15:23:59.980Z,4.95
2022-10-31T15:26:48.437Z,5.97
2022-10-31T15:29:18.162Z,5.47
2022-10-31T15:31:56.144Z,5.68
2022-10-31T15:34:39.358Z,5.50
2022-10-31T15:37:12.656Z,5.78
2022-10-31T15:39:40.330Z,5.15
2022-10-31T15:42:15.816Z,6.05
2022-10-31T15:44:44.508Z,6.30
2022-10-31T15:47:25.204Z,6.45
2022-10-31T15:49:56.804Z,6.53
2022-10-31T15:52:32.320Z,5.78
2022-10-31T15:55:06.448Z,5.60
2022-10-31T15:57:34.092Z,5.68
2022-10-31T16:00:00.857Z,5.85
2022-10-31T16:02:28.737Z,5.53
2022-10-31T16:04:58.656Z,5.70
2022-10-31T16:07:26.543Z,6.13
2022-10-31T16:10:00.502Z,5.88
2022-10-31T16:12:43.657Z,4.80
2022-10-31T16:15:18.835Z,5.47
2022-10-31T16:17:48.704Z,5.15
2022-10-31T16:20:38.692Z,6.60
2022-10-31T16:23:05.490Z,6.43
2022-10-31T16:25:39.552Z,7.35
2022-10-31T16:28:28.299Z,7.63
2022-10-31T16:30:59.852Z,7.60
2022-10-31T16:33:36.963Z,7.05
2022-10-31T16:36:35.389Z,6.72
2022-10-31T16:39:02.649Z,6.57
2022-10-31T16:41:29.664Z,7.40
2022-10-31T16:43:56.432Z,7.78
2022-10-31T16:46:28.031Z,7.15
2022-10-31T16:48:55.485Z,7.38
2022-10-31T16:51:22.309Z,7.70
2022-10-31T16:53:52.365Z,7.53
2022-10-31T16:56:29.278Z,7.32
2022-10-31T16:58:56.037Z,7.47
2022-10-31T17:01:23.411Z,7.50
2022-10-31T17:03:50.240Z,7.38
2022-10-31T17:06:17.270Z,7.30
2022-10-31T17:08:44.049Z,7.50
2022-10-31T17:11:19.970Z,8.20
2022-10-31T17:13:46.816Z,8.80
2022-10-31T17:16:15.290Z,7.38
2022-10-31T17:18:43.713Z,7.32
2022-10-31T17:21:19.679Z,7.25
2022-10-31T17:23:46.607Z,7.60
2022-10-31T17:26:13.358Z,7.85
2022-10-31T17:28:40.310Z,8.30
2022-10-31T17:31:20.088Z,8.25
2022-10-31T17:33:46.875Z,8.90
2022-10-31T17:36:13.616Z,7.75
2022-10-31T17:38:40.470Z,8.02
2022-10-31T17:41:11.231Z,8.82
2022-10-31T17:43:38.560Z,8.63
2022-10-31T17:46:06.117Z,10.07
2022-10-31T17:48:34.600Z,9.15
2022-10-31T17:51:05.779Z,10.18
2022-10-31T17:53:34.459Z,9.55
2022-10-31T17:56:06.488Z,9.70
2022-10-31T17:58:35.229Z,9.30
2022-10-31T18:01:08.279Z,9.07
2022-10-31T18:03:35.209Z,9.35
2022-10-31T18:06:02.057Z,9.63
2022-10-31T18:08:31.494Z,9.30
2022-10-31T18:11:02.109Z,9.00
2022-10-31T18:13:29.044Z,9.43
2022-10-31T18:15:55.758Z,8.35
2022-10-31T18:18:22.572Z,8.57
2022-10-31T18:20:49.361Z,8.80
2022-10-31T18:23:16.126Z,9.07
2022-10-31T18:25:43.432Z,10.07
2022-10-31T18:28:10.573Z,10.43
2022-10-31T18:30:41.521Z,10.27
2022-10-31T18:33:08.947Z,10.13
2022-10-31T18:35:39.702Z,10.75
2022-10-31T18:38:07.338Z,9.60
2022-10-31T18:40:35.630Z,9.75
2022-10-31T18:43:03.427Z,9.63
2022-10-31T18:45:45.427Z,9.75
2022-10-31T18:48:14.974Z,9.10
2022-10-31T18:50:42.211Z,9.73
2022-10-31T18:53:09.108Z,10.07
2022-10-31T18:55:43.906Z,10.48
2022-10-31T18:58:14.250Z,9.70
2022-10-31T19:00:41.228Z,10.05
2022-10-31T19:03:07.942Z,10.75
2022-10-31T19:05:34.722Z,10.85
2022-10-31T19:08:01.426Z,11.50
2022-10-31T19:10:28.312Z,9.90
2022-10-31T19:12:55.014Z,10.45
2022-10-31T19:15:21.694Z,11.07
2022-10-31T19:17:49.218Z,10.02
2022-10-31T19:20:16.023Z,11.25
2022-10-31T19:22:42.831Z,9.77
2022-10-31T19:25:11.080Z,10.15
2022-10-31T19:27:38.756Z,10.05
2022-10-31T19:30:06.860Z,9.85
2022-10-31T19:32:33.596Z,10.32
2022-10-31T19:35:00.413Z,10.95
2022-10-31T19:37:27.117Z,9.77
2022-10-31T19:39:53.833Z,10.80
2022-10-31T19:42:20.811Z,9.90
2022-10-31T19:44:47.585Z,9.15
2022-10-31T19:47:14.263Z,9.20
2022-10-31T19:49:40.931Z,8.50
2022-10-31T19:52:07.734Z,9.60
2022-10-31T19:54:34.610Z,8.60
2022-10-31T19:57:01.410Z,8.65
2022-10-31T19:59:28.140Z,9.07
2022-10-31T20:01:54.927Z,9.48
2022-10-31T20:04:21.735Z,9.48
2022-10-31T20:06:48.441Z,9.05
2022-10-31T20:09:15.562Z,9.27
2022-10-31T20:11:44.560Z,8.80
2022-10-31T20:14:13.549Z,9.77
2022-10-31T20:16:40.514Z,9.93
2022-10-31T20:19:07.794Z,9.27
2022-10-31T20:21:38.264Z,9.00
2022-10-31T20:24:07.248Z,8.90
2022-10-31T20:26:34.935Z,8.30
2022-10-31T20:29:02.215Z,8.02
2022-10-31T20:31:34.331Z,9.52
2022-10-31T20:34:01.346Z,8.77
2022-10-31T20:36:29.539Z,8.20
2022-10-31T20:38:56.571Z,9.00
2022-10-31T20:41:23.342Z,9.65
2022-10-31T20:43:50.346Z,8.82
2022-10-31T20:46:20.174Z,8.57
2022-10-31T20:48:47.542Z,8.52
2022-10-31T20:51:21.424Z,8.10
2022-10-31T20:53:50.166Z,9.07
2022-10-31T20:56:19.287Z,8.20
2022-10-31T20:58:46.717Z,9.05
2022-10-31T21:01:19.252Z,8.80
2022-10-31T21:03:46.476Z,9.27
2022-10-31T21:06:14.654Z,8.98
2022-10-31T21:08:42.688Z,8.48
2022-10-31T21:11:16.197Z,8.68
2022-10-31T21:13:44.386Z,7.47
2022-10-31T21:16:13.888Z,7.95
2022-10-31T21:18:42.352Z,8.27
2022-10-31T21:21:12.816Z,9.90
2022-10-31T21:23:39.717Z,9.05
2022-10-31T21:26:08.433Z,8.13
2022-10-31T21:28:36.028Z,9.00
2022-10-31T21:31:07.397Z,8.88
2022-10-31T21:33:34.591Z,8.45
2022-10-31T21:36:01.312Z,8.38
2022-10-31T21:38:28.007Z,8.20
2022-10-31T21:41:02.373Z,8.55
2022-10-31T21:43:29.699Z,8.63
2022-10-31T21:46:01.624Z,9.18
2022-10-31T21:50:55.715Z,9.18
2022-10-31T21:53:41.026Z,7.88
2022-10-31T21:56:08.234Z,9.07
2022-10-31T21:58:37.764Z,8.00
2022-10-31T22:01:05.678Z,7.53
2022-10-31T22:03:36.949Z,7.38
2022-10-31T22:06:08.413Z,7.95
2022-10-31T22:08:35.364Z,7.18
2022-10-31T22:11:04.073Z,8.10
2022-10-31T22:13:34.698Z,9.27
2022-10-31T22:16:22.567Z,7.65
2022-10-31T22:18:53.835Z,7.47
2022-10-31T22:21:23.783Z,7.85
2022-10-31T22:23:55.992Z,7.20
2022-10-31T22:26:23.849Z,10.13
2022-10-31T22:29:02.983Z,10.80
2022-10-31T22:31:31.444Z,10.52
2022-10-31T22:33:58.547Z,8.60
2022-10-31T22:36:28.011Z,7.88
2022-10-31T22:38:54.765Z,8.80
2022-10-31T22:41:28.821Z,8.63
2022-10-31T22:43:56.763Z,8.10
2022-10-31T22:46:35.736Z,7.10
2022-10-31T22:49:09.861Z,8.68
2022-10-31T22:51:39.188Z,8.25
2022-10-31T22:54:09.352Z,7.55
2022-10-31T22:56:36.212Z,7.47
2022-10-31T22:59:03.548Z,8.38
2022-10-31T23:01:33.197Z,7.97
2022-10-31T23:04:01.172Z,8.85
2022-10-31T23:06:32.490Z,8.27
2022-10-31T23:09:00.890Z,8.45
2022-10-31T23:11:32.292Z,8.18
2022-10-31T23:14:10.598Z,8.27
2022-10-31T23:16:40.566Z,9.15
2022-10-31T23:19:08.735Z,8.23
2022-10-31T23:21:54.788Z,8.10
2022-10-31T23:24:26.968Z,7.97
2022-10-31T23:27:10.254Z,7.93
2022-10-31T23:29:48.639Z,8.65
2022-10-31T23:32:36.182Z,7.60
2022-10-31T23:35:11.976Z,7.82
2022-10-31T23:37:39.013Z,7.85
2022-10-31T23:40:08.565Z,8.32
2022-10-31T23:42:35.314Z,7.65
2022-10-31T23:45:01.992Z,8.23
2022-10-31T23:47:28.661Z,8.48
2022-10-31T23:49:55.333Z,9.90
2022-10-31T23:52:22.033Z,7.93
2022-10-31T23:54:48.718Z,9.07
2022-10-31T23:57:16.540Z,8.95
2022-10-31T23:59:43.363Z,7.40
